sensor_id;sensor_type;location;lat;lon;timestamp;temperature;humidity
67364;HTU21D;54250;45.572;38.086;2023-01-26T00:01:00;-7.40;75.59
67364;HTU21D;54250;45.572;38.086;2023-01-26T00:03:26;-7.46;75.65
67364;HTU21D;54250;45.572;38.086;2023-01-26T00:05:52;-7.51;75.73
67364;HTU21D;54250;45.572;38.086;2023-01-26T00:08:18;-7.55;75.79
67364;HTU21D;54250;45.572;38.086;2023-01-26T00:10:44;-7.57;75.78
67364;HTU21D;54250;45.572;38.086;2023-01-26T00:13:17;-7.57;75.73
67364;HTU21D;54250;45.572;38.086;2023-01-26T00:15:44;-7.56;75.67
67364;HTU21D;54250;45.572;38.086;2023-01-26T00:18:10;-7.62;75.66
67364;HTU21D;54250;45.572;38.086;2023-01-26T00:20:36;-7.67;75.73
67364;HTU21D;54250;45.572;38.086;2023-01-26T00:23:02;-7.69;75.75
67364;HTU21D;54250;45.572;38.086;2023-01-26T00:25:28;-7.68;75.71
67364;HTU21D;54250;45.572;38.086;2023-01-26T00:27:55;-7.67;75.64
67364;HTU21D;54250;45.572;38.086;2023-01-26T00:30:22;-7.68;75.60
67364;HTU21D;54250;45.572;38.086;2023-01-26T00:32:49;-7.71;75.67
67364;HTU21D;54250;45.572;38.086;2023-01-26T00:35:15;-7.70;75.70
67364;HTU21D;54250;45.572;38.086;2023-01-26T00:37:41;-7.70;75.72
67364;HTU21D;54250;45.572;38.086;2023-01-26T00:40:08;-7.69;75.70
67364;HTU21D;54250;45.572;38.086;2023-01-26T00:42:35;-7.68;75.63
67364;HTU21D;54250;45.572;38.086;2023-01-26T00:45:01;-7.71;75.69
67364;HTU21D;54250;45.572;38.086;2023-01-26T00:47:27;-7.74;75.74
67364;HTU21D;54250;45.572;38.086;2023-01-26T00:49:53;-7.75;75.79
67364;HTU21D;54250;45.572;38.086;2023-01-26T00:52:19;-7.70;75.77
67364;HTU21D;54250;45.572;38.086;2023-01-26T00:54:45;-7.69;75.73
67364;HTU21D;54250;45.572;38.086;2023-01-26T00:57:13;-7.68;75.72
67364;HTU21D;54250;45.572;38.086;2023-01-26T00:59:40;-7.67;75.72
67364;HTU21D;54250;45.572;38.086;2023-01-26T01:02:06;-7.68;75.78
67364;HTU21D;54250;45.572;38.086;2023-01-26T01:04:32;-7.66;75.78
67364;HTU21D;54250;45.572;38.086;2023-01-26T01:06:59;-7.66;75.78
67364;HTU21D;54250;45.572;38.086;2023-01-26T01:09:25;-7.62;75.73
67364;HTU21D;54250;45.572;38.086;2023-01-26T01:11:51;-7.52;75.65
67364;HTU21D;54250;45.572;38.086;2023-01-26T01:14:17;-7.37;75.44
67364;HTU21D;54250;45.572;38.086;2023-01-26T01:16:43;-7.24;75.25
67364;HTU21D;54250;45.572;38.086;2023-01-26T01:19:13;-7.08;75.08
67364;HTU21D;54250;45.572;38.086;2023-01-26T01:21:41;-6.93;74.96
67364;HTU21D;54250;45.572;38.086;2023-01-26T01:24:10;-6.79;74.71
67364;HTU21D;54250;45.572;38.086;2023-01-26T01:26:36;-6.64;74.57
67364;HTU21D;54250;45.572;38.086;2023-01-26T01:29:03;-6.50;74.43
67364;HTU21D;54250;45.572;38.086;2023-01-26T01:31:29;-6.35;74.31
67364;HTU21D;54250;45.572;38.086;2023-01-26T01:33:55;-6.26;74.29
67364;HTU21D;54250;45.572;38.086;2023-01-26T01:36:22;-6.15;74.27
67364;HTU21D;54250;45.572;38.086;2023-01-26T01:38:51;-6.03;74.22
67364;HTU21D;54250;45.572;38.086;2023-01-26T01:41:19;-5.90;74.22
67364;HTU21D;54250;45.572;38.086;2023-01-26T01:43:46;-5.82;74.20
67364;HTU21D;54250;45.572;38.086;2023-01-26T01:46:32;-5.71;74.18
67364;HTU21D;54250;45.572;38.086;2023-01-26T01:49:03;-5.63;74.21
67364;HTU21D;54250;45.572;38.086;2023-01-26T01:51:36;-5.56;74.21
67364;HTU21D;54250;45.572;38.086;2023-01-26T01:54:12;-5.53;74.24
67364;HTU21D;54250;45.572;38.086;2023-01-26T01:56:41;-5.50;74.77
67364;HTU21D;54250;45.572;38.086;2023-01-26T01:59:10;-5.50;74.76
67364;HTU21D;54250;45.572;38.086;2023-01-26T02:01:36;-5.47;74.83
67364;HTU21D;54250;45.572;38.086;2023-01-26T02:04:04;-5.43;74.76
67364;HTU21D;54250;45.572;38.086;2023-01-26T02:09:03;-5.31;74.63
67364;HTU21D;54250;45.572;38.086;2023-01-26T02:11:42;-5.30;74.69
67364;HTU21D;54250;45.572;38.086;2023-01-26T02:14:14;-5.30;74.83
67364;HTU21D;54250;45.572;38.086;2023-01-26T02:16:40;-5.33;74.89
67364;HTU21D;54250;45.572;38.086;2023-01-26T02:19:17;-5.34;74.99
67364;HTU21D;54250;45.572;38.086;2023-01-26T02:21:46;-5.34;74.98
67364;HTU21D;54250;45.572;38.086;2023-01-26T02:24:36;-5.32;75.02
67364;HTU21D;54250;45.572;38.086;2023-01-26T02:27:03;-5.35;75.04
67364;HTU21D;54250;45.572;38.086;2023-01-26T02:29:30;-5.35;75.04
67364;HTU21D;54250;45.572;38.086;2023-01-26T02:31:56;-5.34;75.08
67364;HTU21D;54250;45.572;38.086;2023-01-26T02:34:22;-5.34;75.06
67364;HTU21D;54250;45.572;38.086;2023-01-26T02:37:00;-5.35;75.05
67364;HTU21D;54250;45.572;38.086;2023-01-26T02:39:48;-5.37;75.04
67364;HTU21D;54250;45.572;38.086;2023-01-26T02:42:17;-5.37;75.18
67364;HTU21D;54250;45.572;38.086;2023-01-26T02:45:03;-5.39;75.24
67364;HTU21D;54250;45.572;38.086;2023-01-26T02:47:29;-5.33;75.29
67364;HTU21D;54250;45.572;38.086;2023-01-26T02:49:55;-5.29;75.16
67364;HTU21D;54250;45.572;38.086;2023-01-26T02:52:24;-5.25;75.15
67364;HTU21D;54250;45.572;38.086;2023-01-26T02:54:58;-5.19;75.09
67364;HTU21D;54250;45.572;38.086;2023-01-26T02:57:43;-5.23;75.13
67364;HTU21D;54250;45.572;38.086;2023-01-26T03:00:22;-5.26;75.24
67364;HTU21D;54250;45.572;38.086;2023-01-26T03:02:53;-5.30;75.37
67364;HTU21D;54250;45.572;38.086;2023-01-26T03:05:20;-5.26;75.39
67364;HTU21D;54250;45.572;38.086;2023-01-26T03:07:46;-5.25;75.52
67364;HTU21D;54250;45.572;38.086;2023-01-26T03:10:12;-5.28;75.63
67364;HTU21D;54250;45.572;38.086;2023-01-26T03:12:40;-5.29;75.76
67364;HTU21D;54250;45.572;38.086;2023-01-26T03:15:07;-5.32;75.92
67364;HTU21D;54250;45.572;38.086;2023-01-26T03:18:00;-5.39;76.10
67364;HTU21D;54250;45.572;38.086;2023-01-26T03:20:49;-5.46;76.34
67364;HTU21D;54250;45.572;38.086;2023-01-26T03:23:33;-5.47;76.31
67364;HTU21D;54250;45.572;38.086;2023-01-26T03:26:19;-5.47;76.23
67364;HTU21D;54250;45.572;38.086;2023-01-26T03:29:04;-5.50;76.73
67364;HTU21D;54250;45.572;38.086;2023-01-26T03:31:31;-5.52;76.82
67364;HTU21D;54250;45.572;38.086;2023-01-26T03:33:57;-5.53;76.79
67364;HTU21D;54250;45.572;38.086;2023-01-26T03:36:23;-5.52;77.11
67364;HTU21D;54250;45.572;38.086;2023-01-26T03:38:50;-5.54;77.50
67364;HTU21D;54250;45.572;38.086;2023-01-26T03:41:19;-5.56;77.53
67364;HTU21D;54250;45.572;38.086;2023-01-26T03:44:03;-5.56;77.56
67364;HTU21D;54250;45.572;38.086;2023-01-26T03:46:49;-5.56;77.44
67364;HTU21D;54250;45.572;38.086;2023-01-26T03:49:33;-5.58;77.31
67364;HTU21D;54250;45.572;38.086;2023-01-26T03:52:18;-5.61;77.69
67364;HTU21D;54250;45.572;38.086;2023-01-26T03:55:03;-5.65;77.70
67364;HTU21D;54250;45.572;38.086;2023-01-26T03:57:48;-5.67;77.64
67364;HTU21D;54250;45.572;38.086;2023-01-26T04:00:14;-5.65;77.51
67364;HTU21D;54250;45.572;38.086;2023-01-26T04:02:43;-5.64;77.47
67364;HTU21D;54250;45.572;38.086;2023-01-26T04:05:28;-5.64;77.44
67364;HTU21D;54250;45.572;38.086;2023-01-26T04:08:12;-5.63;77.40
67364;HTU21D;54250;45.572;38.086;2023-01-26T04:11:09;-5.62;77.31
67364;HTU21D;54250;45.572;38.086;2023-01-26T04:13:35;-5.60;77.32
67364;HTU21D;54250;45.572;38.086;2023-01-26T04:16:30;-5.61;77.45
67364;HTU21D;54250;45.572;38.086;2023-01-26T04:19:15;-5.60;77.53
67364;HTU21D;54250;45.572;38.086;2023-01-26T04:22:02;-5.60;77.53
67364;HTU21D;54250;45.572;38.086;2023-01-26T04:24:30;-5.59;77.57
67364;HTU21D;54250;45.572;38.086;2023-01-26T04:26:58;-5.62;77.85
67364;HTU21D;54250;45.572;38.086;2023-01-26T04:29:29;-5.62;77.82
67364;HTU21D;54250;45.572;38.086;2023-01-26T04:31:55;-5.57;77.71
67364;HTU21D;54250;45.572;38.086;2023-01-26T04:34:22;-5.53;77.60
67364;HTU21D;54250;45.572;38.086;2023-01-26T04:36:48;-5.48;77.46
67364;HTU21D;54250;45.572;38.086;2023-01-26T04:39:15;-5.43;77.34
67364;HTU21D;54250;45.572;38.086;2023-01-26T04:41:45;-5.40;77.33
67364;HTU21D;54250;45.572;38.086;2023-01-26T04:44:14;-5.38;77.30
67364;HTU21D;54250;45.572;38.086;2023-01-26T04:46:40;-5.37;77.31
67364;HTU21D;54250;45.572;38.086;2023-01-26T04:49:06;-5.34;77.26
67364;HTU21D;54250;45.572;38.086;2023-01-26T04:51:33;-5.32;77.19
67364;HTU21D;54250;45.572;38.086;2023-01-26T04:53:59;-5.33;77.27
67364;HTU21D;54250;45.572;38.086;2023-01-26T04:56:29;-5.30;77.28
67364;HTU21D;54250;45.572;38.086;2023-01-26T04:59:01;-5.23;77.22
67364;HTU21D;54250;45.572;38.086;2023-01-26T05:01:29;-5.17;77.18
67364;HTU21D;54250;45.572;38.086;2023-01-26T05:03:58;-5.14;77.15
67364;HTU21D;54250;45.572;38.086;2023-01-26T05:06:26;-5.14;77.31
67364;HTU21D;54250;45.572;38.086;2023-01-26T05:08:54;-5.11;77.31
67364;HTU21D;54250;45.572;38.086;2023-01-26T05:11:20;-4.99;77.26
67364;HTU21D;54250;45.572;38.086;2023-01-26T05:14:07;-4.96;77.19
67364;HTU21D;54250;45.572;38.086;2023-01-26T05:16:48;-4.95;77.32
67364;HTU21D;54250;45.572;38.086;2023-01-26T05:19:32;-4.95;77.37
67364;HTU21D;54250;45.572;38.086;2023-01-26T05:22:18;-4.94;77.42
67364;HTU21D;54250;45.572;38.086;2023-01-26T05:25:04;-4.95;77.49
67364;HTU21D;54250;45.572;38.086;2023-01-26T05:27:47;-4.87;77.56
67364;HTU21D;54250;45.572;38.086;2023-01-26T05:30:13;-4.78;77.53
67364;HTU21D;54250;45.572;38.086;2023-01-26T05:32:40;-4.67;77.47
67364;HTU21D;54250;45.572;38.086;2023-01-26T05:35:07;-4.61;77.38
67364;HTU21D;54250;45.572;38.086;2023-01-26T05:37:33;-4.52;77.37
67364;HTU21D;54250;45.572;38.086;2023-01-26T05:40:00;-4.44;77.21
67364;HTU21D;54250;45.572;38.086;2023-01-26T05:42:26;-4.38;77.24
67364;HTU21D;54250;45.572;38.086;2023-01-26T05:45:31;-4.30;77.25
67364;HTU21D;54250;45.572;38.086;2023-01-26T05:48:01;-4.20;77.21
67364;HTU21D;54250;45.572;38.086;2023-01-26T05:50:29;-4.14;77.04
67364;HTU21D;54250;45.572;38.086;2023-01-26T05:53:17;-4.09;76.92
67364;HTU21D;54250;45.572;38.086;2023-01-26T05:55:45;-4.06;77.02
67364;HTU21D;54250;45.572;38.086;2023-01-26T05:58:11;-3.93;77.05
67364;HTU21D;54250;45.572;38.086;2023-01-26T06:00:38;-3.83;76.81
67364;HTU21D;54250;45.572;38.086;2023-01-26T06:03:10;-3.79;76.76
67364;HTU21D;54250;45.572;38.086;2023-01-26T06:05:36;-3.79;76.86
67364;HTU21D;54250;45.572;38.086;2023-01-26T06:08:11;-3.70;76.92
67364;HTU21D;54250;45.572;38.086;2023-01-26T06:11:09;-3.63;76.81
67364;HTU21D;54250;45.572;38.086;2023-01-26T06:13:48;-3.57;76.89
67364;HTU21D;54250;45.572;38.086;2023-01-26T06:16:19;-3.48;76.75
67364;HTU21D;54250;45.572;38.086;2023-01-26T06:18:47;-3.41;76.76
67364;HTU21D;54250;45.572;38.086;2023-01-26T06:21:15;-3.28;76.76
67364;HTU21D;54250;45.572;38.086;2023-01-26T06:23:42;-3.11;76.52
67364;HTU21D;54250;45.572;38.086;2023-01-26T06:26:08;-3.06;76.59
67364;HTU21D;54250;45.572;38.086;2023-01-26T06:28:34;-2.98;76.60
67364;HTU21D;54250;45.572;38.086;2023-01-26T06:31:02;-2.87;76.50
67364;HTU21D;54250;45.572;38.086;2023-01-26T06:33:32;-2.84;76.66
67364;HTU21D;54250;45.572;38.086;2023-01-26T06:36:06;-2.77;76.83
67364;HTU21D;54250;45.572;38.086;2023-01-26T06:38:33;-2.59;76.49
67364;HTU21D;54250;45.572;38.086;2023-01-26T06:41:04;-2.38;76.29
67364;HTU21D;54250;45.572;38.086;2023-01-26T06:43:32;-2.32;76.30
67364;HTU21D;54250;45.572;38.086;2023-01-26T06:45:59;-2.17;76.36
67364;HTU21D;54250;45.572;38.086;2023-01-26T06:48:29;-2.00;76.30
67364;HTU21D;54250;45.572;38.086;2023-01-26T06:53:51;-1.82;76.25
67364;HTU21D;54250;45.572;38.086;2023-01-26T06:56:34;-1.65;76.24
67364;HTU21D;54250;45.572;38.086;2023-01-26T06:59:19;-1.48;76.16
67364;HTU21D;54250;45.572;38.086;2023-01-26T07:02:05;-1.24;76.15
67364;HTU21D;54250;45.572;38.086;2023-01-26T07:04:31;-1.01;75.87
67364;HTU21D;54250;45.572;38.086;2023-01-26T07:06:57;-0.77;75.79
67364;HTU21D;54250;45.572;38.086;2023-01-26T07:09:23;-0.58;75.68
67364;HTU21D;54250;45.572;38.086;2023-01-26T07:11:49;-0.40;75.67
67364;HTU21D;54250;45.572;38.086;2023-01-26T07:14:15;-0.23;75.67
67364;HTU21D;54250;45.572;38.086;2023-01-26T07:16:41;-0.15;75.73
67364;HTU21D;54250;45.572;38.086;2023-01-26T07:19:07;-0.22;75.98
67364;HTU21D;54250;45.572;38.086;2023-01-26T07:21:33;-0.21;76.18
67364;HTU21D;54250;45.572;38.086;2023-01-26T07:24:00;-0.28;76.20
67364;HTU21D;54250;45.572;38.086;2023-01-26T07:26:26;-0.30;76.51
67364;HTU21D;54250;45.572;38.086;2023-01-26T07:28:52;-0.40;76.65
67364;HTU21D;54250;45.572;38.086;2023-01-26T07:31:18;-0.51;76.76
67364;HTU21D;54250;45.572;38.086;2023-01-26T07:33:44;-0.68;76.98
67364;HTU21D;54250;45.572;38.086;2023-01-26T07:36:10;-0.59;77.16
67364;HTU21D;54250;45.572;38.086;2023-01-26T07:38:37;-0.56;76.81
67364;HTU21D;54250;45.572;38.086;2023-01-26T07:41:06;-0.42;76.90
67364;HTU21D;54250;45.572;38.086;2023-01-26T07:43:34;-0.36;76.65
67364;HTU21D;54250;45.572;38.086;2023-01-26T07:46:00;-0.37;76.60
67364;HTU21D;54250;45.572;38.086;2023-01-26T07:48:26;-0.40;76.79
67364;HTU21D;54250;45.572;38.086;2023-01-26T07:50:57;-0.43;76.89
67364;HTU21D;54250;45.572;38.086;2023-01-26T07:53:25;-0.46;77.23
67364;HTU21D;54250;45.572;38.086;2023-01-26T07:56:03;-0.19;76.93
67364;HTU21D;54250;45.572;38.086;2023-01-26T07:58:30;0.07;76.37
67364;HTU21D;54250;45.572;38.086;2023-01-26T08:01:03;0.14;76.08
67364;HTU21D;54250;45.572;38.086;2023-01-26T08:03:29;0.07;76.53
67364;HTU21D;54250;45.572;38.086;2023-01-26T08:05:55;0.14;76.69
67364;HTU21D;54250;45.572;38.086;2023-01-26T08:08:21;0.30;76.55
67364;HTU21D;54250;45.572;38.086;2023-01-26T08:10:47;0.53;76.38
67364;HTU21D;54250;45.572;38.086;2023-01-26T08:13:13;0.66;76.28
67364;HTU21D;54250;45.572;38.086;2023-01-26T08:15:39;0.88;76.29
67364;HTU21D;54250;45.572;38.086;2023-01-26T08:18:09;1.05;76.11
67364;HTU21D;54250;45.572;38.086;2023-01-26T08:20:36;1.34;75.93
67364;HTU21D;54250;45.572;38.086;2023-01-26T08:23:02;1.58;75.60
67364;HTU21D;54250;45.572;38.086;2023-01-26T08:25:28;1.66;75.58
67364;HTU21D;54250;45.572;38.086;2023-01-26T08:27:54;1.62;75.77
67364;HTU21D;54250;45.572;38.086;2023-01-26T08:30:20;1.70;76.00
67364;HTU21D;54250;45.572;38.086;2023-01-26T08:32:46;1.62;76.02
67364;HTU21D;54250;45.572;38.086;2023-01-26T08:35:12;1.66;76.24
67364;HTU21D;54250;45.572;38.086;2023-01-26T08:37:38;1.51;76.37
67364;HTU21D;54250;45.572;38.086;2023-01-26T08:40:05;1.29;77.08
67364;HTU21D;54250;45.572;38.086;2023-01-26T08:42:31;1.56;77.04
67364;HTU21D;54250;45.572;38.086;2023-01-26T08:44:57;2.01;76.26
67364;HTU21D;54250;45.572;38.086;2023-01-26T08:47:23;2.35;75.48
67364;HTU21D;54250;45.572;38.086;2023-01-26T08:49:49;2.35;75.41
67364;HTU21D;54250;45.572;38.086;2023-01-26T08:52:15;2.31;75.83
67364;HTU21D;54250;45.572;38.086;2023-01-26T08:54:41;2.50;75.83
67364;HTU21D;54250;45.572;38.086;2023-01-26T08:57:07;2.67;75.66
67364;HTU21D;54250;45.572;38.086;2023-01-26T08:59:33;2.87;75.57
67364;HTU21D;54250;45.572;38.086;2023-01-26T09:01:59;2.95;75.28
67364;HTU21D;54250;45.572;38.086;2023-01-26T09:04:25;3.00;75.63
67364;HTU21D;54250;45.572;38.086;2023-01-26T09:06:52;3.19;75.18
67364;HTU21D;54250;45.572;38.086;2023-01-26T09:09:18;3.21;75.05
67364;HTU21D;54250;45.572;38.086;2023-01-26T09:11:44;3.13;75.25
67364;HTU21D;54250;45.572;38.086;2023-01-26T09:14:09;3.05;75.51
67364;HTU21D;54250;45.572;38.086;2023-01-26T09:16:36;3.13;75.56
67364;HTU21D;54250;45.572;38.086;2023-01-26T09:19:02;3.03;75.38
67364;HTU21D;54250;45.572;38.086;2023-01-26T09:21:28;2.86;75.71
67364;HTU21D;54250;45.572;38.086;2023-01-26T09:23:55;2.84;75.89
67364;HTU21D;54250;45.572;38.086;2023-01-26T09:26:21;2.78;75.83
67364;HTU21D;54250;45.572;38.086;2023-01-26T09:28:50;2.73;75.91
67364;HTU21D;54250;45.572;38.086;2023-01-26T09:31:16;2.54;76.12
67364;HTU21D;54250;45.572;38.086;2023-01-26T09:33:42;2.41;76.32
67364;HTU21D;54250;45.572;38.086;2023-01-26T09:36:09;2.36;76.47
67364;HTU21D;54250;45.572;38.086;2023-01-26T09:38:37;2.36;76.31
67364;HTU21D;54250;45.572;38.086;2023-01-26T09:41:09;2.35;76.23
67364;HTU21D;54250;45.572;38.086;2023-01-26T09:46:29;2.46;76.15
67364;HTU21D;54250;45.572;38.086;2023-01-26T09:49:24;2.58;75.81
67364;HTU21D;54250;45.572;38.086;2023-01-26T09:54:36;2.65;75.88
67364;HTU21D;54250;45.572;38.086;2023-01-26T09:57:19;2.61;76.07
67364;HTU21D;54250;45.572;38.086;2023-01-26T10:00:08;2.57;76.19
67364;HTU21D;54250;45.572;38.086;2023-01-26T10:02:58;2.55;76.38
67364;HTU21D;54250;45.572;38.086;2023-01-26T10:08:10;2.78;76.12
67364;HTU21D;54250;45.572;38.086;2023-01-26T10:10:43;2.93;75.87
67364;HTU21D;54250;45.572;38.086;2023-01-26T10:13:15;2.94;75.89
67364;HTU21D;54250;45.572;38.086;2023-01-26T10:15:44;3.03;75.86
67364;HTU21D;54250;45.572;38.086;2023-01-26T10:18:17;3.08;75.75
67364;HTU21D;54250;45.572;38.086;2023-01-26T10:20:50;3.11;75.86
67364;HTU21D;54250;45.572;38.086;2023-01-26T10:23:23;3.13;75.87
67364;HTU21D;54250;45.572;38.086;2023-01-26T10:25:50;3.14;75.94
67364;HTU21D;54250;45.572;38.086;2023-01-26T10:28:24;3.17;76.00
67364;HTU21D;54250;45.572;38.086;2023-01-26T10:30:51;3.23;76.01
67364;HTU21D;54250;45.572;38.086;2023-01-26T10:33:29;3.31;75.89
67364;HTU21D;54250;45.572;38.086;2023-01-26T10:35:58;3.29;75.89
67364;HTU21D;54250;45.572;38.086;2023-01-26T10:41:00;3.30;76.15
67364;HTU21D;54250;45.572;38.086;2023-01-26T10:43:27;3.33;76.05
67364;HTU21D;54250;45.572;38.086;2023-01-26T10:45:53;3.41;75.96
67364;HTU21D;54250;45.572;38.086;2023-01-26T10:48:21;3.42;75.96
67364;HTU21D;54250;45.572;38.086;2023-01-26T10:50:52;3.45;75.93
67364;HTU21D;54250;45.572;38.086;2023-01-26T10:53:26;3.48;76.03
67364;HTU21D;54250;45.572;38.086;2023-01-26T10:56:08;3.55;75.99
67364;HTU21D;54250;45.572;38.086;2023-01-26T10:58:46;3.61;75.93
67364;HTU21D;54250;45.572;38.086;2023-01-26T11:01:15;3.63;76.11
67364;HTU21D;54250;45.572;38.086;2023-01-26T11:04:12;3.77;75.93
67364;HTU21D;54250;45.572;38.086;2023-01-26T11:06:40;3.84;75.85
67364;HTU21D;54250;45.572;38.086;2023-01-26T11:11:58;3.76;76.21
67364;HTU21D;54250;45.572;38.086;2023-01-26T11:14:27;3.83;76.18
67364;HTU21D;54250;45.572;38.086;2023-01-26T11:17:31;3.89;76.14
67364;HTU21D;54250;45.572;38.086;2023-01-26T11:25:02;4.06;76.12
67364;HTU21D;54250;45.572;38.086;2023-01-26T11:27:44;4.06;76.21
67364;HTU21D;54250;45.572;38.086;2023-01-26T11:33:07;4.28;75.89
67364;HTU21D;54250;45.572;38.086;2023-01-26T11:36:02;4.28;76.32
67364;HTU21D;54250;45.572;38.086;2023-01-26T11:39:18;4.39;76.22
67364;HTU21D;54250;45.572;38.086;2023-01-26T11:44:35;4.39;76.40
67364;HTU21D;54250;45.572;38.086;2023-01-26T11:52:50;4.49;76.60
67364;HTU21D;54250;45.572;38.086;2023-01-26T11:58:10;4.45;76.76
67364;HTU21D;54250;45.572;38.086;2023-01-26T12:00:51;4.47;76.88
67364;HTU21D;54250;45.572;38.086;2023-01-26T12:03:29;4.51;76.82
67364;HTU21D;54250;45.572;38.086;2023-01-26T12:06:03;4.57;76.76
67364;HTU21D;54250;45.572;38.086;2023-01-26T12:09:03;4.53;76.70
67364;HTU21D;54250;45.572;38.086;2023-01-26T12:11:34;4.51;76.85
67364;HTU21D;54250;45.572;38.086;2023-01-26T12:14:20;4.48;76.86
67364;HTU21D;54250;45.572;38.086;2023-01-26T12:19:51;4.36;77.05
67364;HTU21D;54250;45.572;38.086;2023-01-26T12:22:23;4.37;77.24
67364;HTU21D;54250;45.572;38.086;2023-01-26T12:24:54;4.36;77.24
67364;HTU21D;54250;45.572;38.086;2023-01-26T12:27:26;4.38;77.19
67364;HTU21D;54250;45.572;38.086;2023-01-26T12:30:25;4.35;77.15
67364;HTU21D;54250;45.572;38.086;2023-01-26T12:32:51;4.30;77.24
67364;HTU21D;54250;45.572;38.086;2023-01-26T12:35:48;4.19;77.37
67364;HTU21D;54250;45.572;38.086;2023-01-26T12:38:23;4.10;77.53
67364;HTU21D;54250;45.572;38.086;2023-01-26T12:41:01;4.08;77.62
67364;HTU21D;54250;45.572;38.086;2023-01-26T12:46:15;4.05;77.66
67364;HTU21D;54250;45.572;38.086;2023-01-26T12:48:49;4.06;77.62
67364;HTU21D;54250;45.572;38.086;2023-01-26T12:51:30;4.02;77.55
67364;HTU21D;54250;45.572;38.086;2023-01-26T12:57:10;3.88;77.74
67364;HTU21D;54250;45.572;38.086;2023-01-26T12:59:36;3.76;77.82
67364;HTU21D;54250;45.572;38.086;2023-01-26T13:02:30;3.62;77.89
67364;HTU21D;54250;45.572;38.086;2023-01-26T13:04:57;3.56;78.02
67364;HTU21D;54250;45.572;38.086;2023-01-26T13:07:28;3.48;78.07
67364;HTU21D;54250;45.572;38.086;2023-01-26T13:13:24;3.36;77.89
67364;HTU21D;54250;45.572;38.086;2023-01-26T13:16:31;3.26;78.09
67364;HTU21D;54250;45.572;38.086;2023-01-26T13:18:58;3.27;78.12
67364;HTU21D;54250;45.572;38.086;2023-01-26T13:26:56;3.28;78.19
67364;HTU21D;54250;45.572;38.086;2023-01-26T13:34:41;3.26;78.26
67364;HTU21D;54250;45.572;38.086;2023-01-26T13:37:26;3.20;78.26
67364;HTU21D;54250;45.572;38.086;2023-01-26T13:39:58;3.10;78.38
67364;HTU21D;54250;45.572;38.086;2023-01-26T13:42:39;3.03;78.43
67364;HTU21D;54250;45.572;38.086;2023-01-26T13:45:35;2.93;78.45
67364;HTU21D;54250;45.572;38.086;2023-01-26T13:48:06;2.88;78.60
67364;HTU21D;54250;45.572;38.086;2023-01-26T13:50:36;2.85;78.62
67364;HTU21D;54250;45.572;38.086;2023-01-26T13:53:31;2.84;78.51
67364;HTU21D;54250;45.572;38.086;2023-01-26T13:55:59;2.81;78.56
67364;HTU21D;54250;45.572;38.086;2023-01-26T13:58:25;2.76;78.63
67364;HTU21D;54250;45.572;38.086;2023-01-26T14:00:59;2.70;78.63
67364;HTU21D;54250;45.572;38.086;2023-01-26T14:03:26;2.64;78.71
67364;HTU21D;54250;45.572;38.086;2023-01-26T14:06:18;2.59;78.60
67364;HTU21D;54250;45.572;38.086;2023-01-26T14:08:52;2.54;78.68
67364;HTU21D;54250;45.572;38.086;2023-01-26T14:11:21;2.50;78.74
67364;HTU21D;54250;45.572;38.086;2023-01-26T14:13:53;2.45;78.79
67364;HTU21D;54250;45.572;38.086;2023-01-26T14:16:28;2.41;78.79
67364;HTU21D;54250;45.572;38.086;2023-01-26T14:21:30;2.28;78.90
67364;HTU21D;54250;45.572;38.086;2023-01-26T14:23:58;2.30;78.99
67364;HTU21D;54250;45.572;38.086;2023-01-26T14:26:31;2.32;78.99
67364;HTU21D;54250;45.572;38.086;2023-01-26T14:28:59;2.31;79.04
67364;HTU21D;54250;45.572;38.086;2023-01-26T14:31:26;2.30;79.00
67364;HTU21D;54250;45.572;38.086;2023-01-26T14:33:55;2.30;79.03
67364;HTU21D;54250;45.572;38.086;2023-01-26T14:36:25;2.27;79.00
67364;HTU21D;54250;45.572;38.086;2023-01-26T14:38:53;2.23;79.04
67364;HTU21D;54250;45.572;38.086;2023-01-26T14:43:48;2.20;79.07
67364;HTU21D;54250;45.572;38.086;2023-01-26T14:46:17;2.15;78.98
67364;HTU21D;54250;45.572;38.086;2023-01-26T14:48:59;2.07;78.95
67364;HTU21D;54250;45.572;38.086;2023-01-26T14:51:27;2.01;79.12
67364;HTU21D;54250;45.572;38.086;2023-01-26T14:53:56;2.00;79.15
67364;HTU21D;54250;45.572;38.086;2023-01-26T14:56:35;1.95;78.99
67364;HTU21D;54250;45.572;38.086;2023-01-26T14:59:03;1.87;79.21
67364;HTU21D;54250;45.572;38.086;2023-01-26T15:01:30;1.85;79.27
67364;HTU21D;54250;45.572;38.086;2023-01-26T15:04:05;1.87;79.19
67364;HTU21D;54250;45.572;38.086;2023-01-26T15:06:37;1.88;79.22
67364;HTU21D;54250;45.572;38.086;2023-01-26T15:09:24;1.88;79.11
67364;HTU21D;54250;45.572;38.086;2023-01-26T15:11:56;1.86;79.14
67364;HTU21D;54250;45.572;38.086;2023-01-26T15:17:45;1.75;79.22
67364;HTU21D;54250;45.572;38.086;2023-01-26T15:22:51;1.71;79.40
67364;HTU21D;54250;45.572;38.086;2023-01-26T15:25:22;1.73;79.49
67364;HTU21D;54250;45.572;38.086;2023-01-26T15:27:57;1.75;79.46
67364;HTU21D;54250;45.572;38.086;2023-01-26T15:30:27;1.75;79.45
67364;HTU21D;54250;45.572;38.086;2023-01-26T15:32:54;1.75;79.44
67364;HTU21D;54250;45.572;38.086;2023-01-26T15:35:26;1.76;79.46
67364;HTU21D;54250;45.572;38.086;2023-01-26T15:38:08;1.76;79.43
67364;HTU21D;54250;45.572;38.086;2023-01-26T15:40:35;1.76;79.49
67364;HTU21D;54250;45.572;38.086;2023-01-26T15:48:12;1.70;79.68
67364;HTU21D;54250;45.572;38.086;2023-01-26T15:50:39;1.68;79.78
67364;HTU21D;54250;45.572;38.086;2023-01-26T15:53:19;1.68;79.78
67364;HTU21D;54250;45.572;38.086;2023-01-26T15:55:47;1.69;79.73
67364;HTU21D;54250;45.572;38.086;2023-01-26T15:58:18;1.67;79.69
67364;HTU21D;54250;45.572;38.086;2023-01-26T16:00:44;1.62;79.75
67364;HTU21D;54250;45.572;38.086;2023-01-26T16:03:20;1.60;79.85
67364;HTU21D;54250;45.572;38.086;2023-01-26T16:05:46;1.57;79.95
67364;HTU21D;54250;45.572;38.086;2023-01-26T16:08:13;1.54;79.99
67364;HTU21D;54250;45.572;38.086;2023-01-26T16:10:40;1.52;80.00
67364;HTU21D;54250;45.572;38.086;2023-01-26T16:13:10;1.49;80.01
67364;HTU21D;54250;45.572;38.086;2023-01-26T16:18:09;1.46;80.03
67364;HTU21D;54250;45.572;38.086;2023-01-26T16:20:37;1.48;80.06
67364;HTU21D;54250;45.572;38.086;2023-01-26T16:23:17;1.50;79.91
67364;HTU21D;54250;45.572;38.086;2023-01-26T16:25:44;1.50;79.98
67364;HTU21D;54250;45.572;38.086;2023-01-26T16:28:10;1.53;79.94
67364;HTU21D;54250;45.572;38.086;2023-01-26T16:30:36;1.54;79.95
67364;HTU21D;54250;45.572;38.086;2023-01-26T16:33:03;1.55;80.08
67364;HTU21D;54250;45.572;38.086;2023-01-26T16:35:29;1.54;80.08
67364;HTU21D;54250;45.572;38.086;2023-01-26T16:37:55;1.54;80.20
67364;HTU21D;54250;45.572;38.086;2023-01-26T16:40:21;1.54;80.13
67364;HTU21D;54250;45.572;38.086;2023-01-26T16:42:49;1.54;80.11
67364;HTU21D;54250;45.572;38.086;2023-01-26T16:45:24;1.51;80.07
67364;HTU21D;54250;45.572;38.086;2023-01-26T16:47:55;1.50;80.14
67364;HTU21D;54250;45.572;38.086;2023-01-26T16:50:25;1.48;80.22
67364;HTU21D;54250;45.572;38.086;2023-01-26T16:52:51;1.45;80.24
67364;HTU21D;54250;45.572;38.086;2023-01-26T16:55:18;1.43;80.30